Time;durP1;ratioP1;P1;durP2;ratioP2;P2;SDS_P1;SDS_P2;PMS_P1;PMS_P2;Temp;Humidity;BMP_temperature;BMP_pressure;BME280_temperature;BME280_humidity;BME280_pressure;Samples;Min_cycle;Max_cycle;Signal;HPM_P1;HPM_P2
2023/05/10 00:01:33;;;;;;;5.53;2.40;;;9.40;59.80;;;;;;4786477;30;20043;-91
2023/05/10 00:04:00;;;;;;;7.03;2.40;;;9.40;59.50;;;;;;4774512;30;20059;-91
2023/05/10 00:06:28;;;;;;;8.60;3.08;;;9.40;59.30;;;;;;4786349;29;20056;-91
2023/05/10 00:08:56;;;;;;;5.50;2.25;;;9.30;59.80;;;;;;4771585;30;20129;-91
2023/05/10 00:11:23;;;;;;;6.17;2.47;;;9.20;59.80;;;;;;4786371;30;20121;-91
2023/05/10 00:13:50;;;;;;;6.68;2.20;;;9.20;59.70;;;;;;4774606;30;20089;-91
2023/05/10 00:16:17;;;;;;;8.05;2.70;;;9.20;59.90;;;;;;4785045;30;20043;-91
2023/05/10 00:18:44;;;;;;;6.72;2.40;;;9.20;59.80;;;;;;4786477;30;20043;-91
2023/05/10 00:21:11;;;;;;;8.07;2.60;;;9.10;60.00;;;;;;4791407;29;20105;-90
2023/05/10 00:28:33;;;;;;;5.75;2.03;;;9.00;60.40;;;;;;4771880;30;20067;-91
2023/05/10 00:31:00;;;;;;;5.40;2.35;;;9.00;60.80;;;;;;4785914;29;20054;-90
2023/05/10 00:33:29;;;;;;;5.75;2.15;;;8.90;60.80;;;;;;4772852;30;20565;-90
2023/05/10 00:35:56;;;;;;;5.80;2.15;;;8.80;61.10;;;;;;4788355;30;20059;-91
2023/05/10 00:38:23;;;;;;;5.97;2.00;;;8.90;61.10;;;;;;4788246;29;20235;-90
2023/05/10 00:40:50;;;;;;;5.60;2.15;;;8.90;60.80;;;;;;4785790;30;20543;-91
2023/05/10 00:43:25;;;;;;;6.40;2.42;;;8.90;61.10;;;;;;4778658;30;20059;-91
2023/05/10 00:45:52;;;;;;;6.55;2.20;;;8.80;60.80;;;;;;4775127;29;20151;-90
2023/05/10 00:48:20;;;;;;;5.97;2.10;;;8.80;61.10;;;;;;4785369;29;20100;-91
2023/05/10 00:50:48;;;;;;;5.80;2.20;;;8.80;61.30;;;;;;4785314;29;20214;-91
2023/05/10 00:53:15;;;;;;;6.32;2.33;;;8.70;61.10;;;;;;4775777;29;20051;-91
2023/05/10 00:55:48;;;;;;;7.30;2.58;;;8.70;61.40;;;;;;4783196;29;20048;-90
2023/05/10 00:58:15;;;;;;;7.20;2.33;;;8.70;61.30;;;;;;4785290;29;20407;-90
2023/05/10 01:00:46;;;;;;;6.22;2.47;;;8.70;61.10;;;;;;4785462;30;20117;-90
2023/05/10 01:03:14;;;;;;;8.60;2.27;;;8.60;61.20;;;;;;4774142;29;20052;-90
2023/05/10 01:05:41;;;;;;;6.53;2.40;;;8.50;60.80;;;;;;4784961;30;20062;-90
2023/05/10 01:08:08;;;;;;;6.72;2.50;;;8.50;61.30;;;;;;4771291;29;20066;-90
2023/05/10 01:10:35;;;;;;;5.07;2.28;;;8.50;61.20;;;;;;4785302;30;20118;-91
2023/05/10 01:13:03;;;;;;;7.10;2.25;;;8.50;61.40;;;;;;4785134;29;20051;-90
2023/05/10 01:15:31;;;;;;;6.10;2.13;;;8.50;61.70;;;;;;4771981;29;20066;-91
2023/05/10 01:17:58;;;;;;;6.30;2.38;;;8.40;61.30;;;;;;4785003;29;20541;-91
2023/05/10 01:20:29;;;;;;;5.43;2.38;;;8.40;61.70;;;;;;4785006;29;20048;-90
2023/05/10 01:23:28;;;;;;;6.60;2.25;;;8.40;61.70;;;;;;4776424;29;20056;-90
2023/05/10 01:26:13;;;;;;;8.13;2.50;;;8.30;62.40;;;;;;4784952;29;20060;-91
2023/05/10 01:28:46;;;;;;;6.60;2.20;;;8.20;62.20;;;;;;4783326;30;20048;-91
2023/05/10 01:31:32;;;;;;;6.80;1.92;;;8.20;62.10;;;;;;4782936;29;20052;-91
2023/05/10 01:34:06;;;;;;;7.53;2.13;;;8.20;62.40;;;;;;4784709;29;20055;-90
2023/05/10 01:36:39;;;;;;;6.50;2.13;;;8.20;62.50;;;;;;4784830;29;20634;-90
2023/05/10 01:39:32;;;;;;;5.47;2.00;;;8.10;62.70;;;;;;4775137;30;20051;-90
2023/05/10 01:42:07;;;;;;;9.83;2.10;;;8.10;62.90;;;;;;4782951;29;20516;-91
2023/05/10 01:44:45;;;;;;;6.82;2.25;;;8.10;62.70;;;;;;4784404;29;20142;-91
2023/05/10 01:47:40;;;;;;;5.57;2.10;;;8.00;63.20;;;;;;4783612;29;20055;-90
2023/05/10 01:50:14;;;;;;;6.85;2.10;;;8.10;63.20;;;;;;4784618;29;20048;-90
2023/05/10 01:52:47;;;;;;;6.70;2.40;;;8.10;62.90;;;;;;4784803;29;20119;-91
2023/05/10 01:55:17;;;;;;;7.07;2.70;;;8.10;63.20;;;;;;4784490;29;20044;-91
2023/05/10 01:57:47;;;;;;;7.97;1.90;;;8.10;62.70;;;;;;4775494;29;20512;-90
2023/05/10 02:00:15;;;;;;;8.93;2.70;;;8.00;62.60;;;;;;4784387;29;20059;-91
2023/05/10 02:02:46;;;;;;;6.35;2.05;;;8.00;62.90;;;;;;4773338;30;20051;-91
2023/05/10 02:05:15;;;;;;;5.60;2.20;;;8.00;62.90;;;;;;4773201;29;20056;-91
2023/05/10 02:07:43;;;;;;;5.83;2.30;;;8.00;62.80;;;;;;4784414;29;20105;-91
2023/05/10 02:10:13;;;;;;;5.80;2.38;;;7.90;63.40;;;;;;4784360;30;20043;-91
2023/05/10 02:12:47;;;;;;;7.10;2.17;;;7.80;63.60;;;;;;4775027;30;20412;-91
2023/05/10 02:15:19;;;;;;;6.82;2.40;;;7.80;63.50;;;;;;4784621;29;20044;-91
2023/05/10 02:17:47;;;;;;;8.05;2.42;;;7.80;63.90;;;;;;4771393;30;20044;-91
2023/05/10 02:20:16;;;;;;;5.47;2.07;;;7.70;64.00;;;;;;4784065;30;20071;-92
2023/05/10 02:22:46;;;;;;;8.00;2.28;;;7.70;63.90;;;;;;4784548;30;20654;-91
2023/05/10 02:25:15;;;;;;;6.05;2.28;;;7.70;64.20;;;;;;4784316;29;20052;-91
2023/05/10 02:27:44;;;;;;;6.18;2.22;;;7.70;64.10;;;;;;4781605;30;20478;-91
2023/05/10 02:30:12;;;;;;;6.28;2.30;;;7.70;64.30;;;;;;4784849;30;20066;-91
2023/05/10 02:32:40;;;;;;;5.47;2.13;;;7.70;64.20;;;;;;4784954;29;20048;-92
2023/05/10 02:35:09;;;;;;;6.63;2.08;;;7.50;64.70;;;;;;4784256;30;20052;-91
2023/05/10 02:37:38;;;;;;;6.13;2.13;;;7.50;64.40;;;;;;4770969;29;20063;-91
2023/05/10 02:40:07;;;;;;;7.20;2.33;;;7.50;64.70;;;;;;4784254;30;20044;-91
2023/05/10 02:42:37;;;;;;;6.40;2.35;;;7.50;64.60;;;;;;4769189;30;20060;-91
2023/05/10 02:45:11;;;;;;;5.60;2.20;;;7.50;64.80;;;;;;4784143;30;20491;-91
2023/05/10 02:47:39;;;;;;;6.65;2.25;;;7.60;64.50;;;;;;4784001;29;20653;-91
2023/05/10 02:50:07;;;;;;;6.13;2.40;;;7.60;64.60;;;;;;4784090;30;20062;-91
2023/05/10 02:52:44;;;;;;;6.95;2.35;;;7.60;64.60;;;;;;4770813;29;20051;-91
2023/05/10 02:55:15;;;;;;;5.43;1.90;;;7.60;64.80;;;;;;4787252;29;20044;-90
2023/05/10 02:57:48;;;;;;;7.07;2.67;;;7.50;64.70;;;;;;4784106;30;20568;-90
2023/05/10 03:00:15;;;;;;;6.65;1.95;;;7.50;64.80;;;;;;4784208;30;20044;-90
2023/05/10 03:02:43;;;;;;;5.93;2.17;;;7.50;64.70;;;;;;4784184;29;20046;-91
2023/05/10 03:05:10;;;;;;;6.80;2.40;;;7.50;64.90;;;;;;4783717;29;20131;-91
2023/05/10 03:07:37;;;;;;;6.20;2.58;;;7.50;64.70;;;;;;4770891;30;20167;-91
2023/05/10 03:10:05;;;;;;;5.50;2.20;;;7.50;64.90;;;;;;4783655;30;20052;-90
2023/05/10 03:13:03;;;;;;;6.00;2.00;;;7.50;64.70;;;;;;4784022;30;20044;-90
2023/05/10 03:15:50;;;;;;;7.80;2.90;;;7.50;65.00;;;;;;4780939;30;20549;-90
2023/05/10 03:18:22;;;;;;;9.50;2.53;;;7.40;65.30;;;;;;4783658;30;20052;-91
2023/05/10 03:20:59;;;;;;;6.80;2.05;;;7.40;65.60;;;;;;4783762;30;20086;-90
2023/05/10 03:23:38;;;;;;;6.23;2.50;;;7.20;65.60;;;;;;4783732;30;20120;-91
2023/05/10 03:26:07;;;;;;;6.93;2.30;;;7.20;66.00;;;;;;4783785;29;20380;-91
2023/05/10 03:28:35;;;;;;;8.55;2.72;;;7.10;66.50;;;;;;4783705;30;20575;-91
2023/05/10 03:31:05;;;;;;;5.45;2.05;;;7.10;66.50;;;;;;4783589;30;20054;-90
2023/05/10 03:33:33;;;;;;;5.72;2.13;;;7.00;66.60;;;;;;4783738;29;20134;-92
2023/05/10 03:36:00;;;;;;;6.80;2.40;;;7.00;66.70;;;;;;4784047;29;20393;-92
2023/05/10 03:38:27;;;;;;;8.10;2.25;;;7.00;67.10;;;;;;4784637;29;20047;-91
2023/05/10 03:40:56;;;;;;;6.47;2.42;;;7.00;67.00;;;;;;4787087;29;20051;-91
2023/05/10 03:43:23;;;;;;;8.48;2.40;;;7.00;67.20;;;;;;4787754;30;20058;-92
2023/05/10 03:45:51;;;;;;;6.72;2.20;;;7.00;67.20;;;;;;4786976;30;20051;-92
2023/05/10 03:48:18;;;;;;;7.33;2.50;;;7.00;67.00;;;;;;4786699;29;20139;-91
2023/05/10 03:50:45;;;;;;;6.05;2.22;;;7.00;66.90;;;;;;4786387;29;20138;-90
2023/05/10 03:53:13;;;;;;;7.15;2.38;;;7.00;66.80;;;;;;4786463;29;20126;-90
2023/05/10 03:55:40;;;;;;;8.80;2.78;;;7.10;67.10;;;;;;4786617;29;20064;-91
2023/05/10 03:58:10;;;;;;;8.43;2.30;;;7.10;66.90;;;;;;4786559;29;20063;-91
2023/05/10 04:00:43;;;;;;;7.50;2.37;;;7.20;66.40;;;;;;4786639;29;20055;-91
2023/05/10 04:03:11;;;;;;;6.65;2.17;;;7.30;66.20;;;;;;4785244;29;20060;-91
2023/05/10 04:05:39;;;;;;;8.45;2.50;;;7.30;66.20;;;;;;4786262;30;20048;-89
2023/05/10 04:08:06;;;;;;;6.72;2.10;;;7.30;66.40;;;;;;4786431;30;20099;-91
2023/05/10 04:10:41;;;;;;;6.28;2.50;;;7.40;66.10;;;;;;4786455;29;20040;-91
2023/05/10 04:13:08;;;;;;;6.73;2.40;;;7.50;66.10;;;;;;4786497;30;20051;-92
2023/05/10 04:15:35;;;;;;;8.80;2.53;;;7.50;66.10;;;;;;4786910;30;20080;-92
2023/05/10 04:18:05;;;;;;;6.65;2.50;;;7.50;66.20;;;;;;4786708;29;20052;-92
2023/05/10 04:20:34;;;;;;;6.00;2.15;;;7.50;65.90;;;;;;4789832;29;20104;-92
2023/05/10 04:23:01;;;;;;;7.00;2.42;;;7.50;65.60;;;;;;4786246;29;20052;-92
2023/05/10 04:25:28;;;;;;;6.97;2.53;;;7.60;65.50;;;;;;4786643;29;20048;-90
2023/05/10 04:27:55;;;;;;;8.20;2.30;;;7.60;65.50;;;;;;4786317;30;20058;-92
2023/05/10 04:30:23;;;;;;;7.55;2.90;;;7.70;65.60;;;;;;4786237;30;20105;-92
2023/05/10 04:32:49;;;;;;;7.50;2.65;;;7.70;65.70;;;;;;4786372;30;20051;-92
2023/05/10 04:35:17;;;;;;;6.78;2.80;;;7.80;65.50;;;;;;4785152;29;20082;-92
2023/05/10 04:37:44;;;;;;;10.27;2.33;;;7.90;65.20;;;;;;4785739;30;20044;-91
2023/05/10 04:40:11;;;;;;;5.72;2.25;;;8.00;65.00;;;;;;4786182;30;20499;-92
2023/05/10 04:42:41;;;;;;;6.18;2.55;;;8.10;64.60;;;;;;4785890;29;20568;-92
2023/05/10 04:45:09;;;;;;;7.63;2.40;;;8.20;64.30;;;;;;4785773;30;20052;-92
2023/05/10 04:47:36;;;;;;;7.97;2.70;;;8.20;64.30;;;;;;4785861;30;20086;-91
2023/05/10 04:50:04;;;;;;;6.60;2.30;;;8.30;64.20;;;;;;4771116;29;20062;-92
2023/05/10 04:52:32;;;;;;;7.93;2.50;;;8.50;63.90;;;;;;4785552;30;20078;-91
2023/05/10 04:54:59;;;;;;;9.93;2.83;;;8.50;63.80;;;;;;4775046;30;20059;-91
2023/05/10 04:57:26;;;;;;;6.15;2.45;;;8.70;63.70;;;;;;4785786;30;20047;-92
2023/05/10 04:59:53;;;;;;;6.95;2.80;;;8.90;63.10;;;;;;4785906;29;20199;-91
2023/05/10 05:02:20;;;;;;;6.67;2.60;;;9.00;62.70;;;;;;4785620;30;20051;-92
2023/05/10 05:04:47;;;;;;;6.18;2.40;;;9.10;62.40;;;;;;4772397;30;20517;-92
2023/05/10 05:07:14;;;;;;;8.02;2.88;;;9.40;61.80;;;;;;4785139;29;20052;-92
2023/05/10 05:09:41;;;;;;;8.18;2.78;;;9.50;61.20;;;;;;4770423;30;20074;-92
2023/05/10 05:12:13;;;;;;;6.82;2.70;;;9.70;61.40;;;;;;4770417;30;20039;-92
2023/05/10 05:14:41;;;;;;;6.13;3.07;;;9.90;61.00;;;;;;4770453;30;20062;-92
2023/05/10 05:17:08;;;;;;;8.68;3.20;;;10.00;60.30;;;;;;4770653;30;20286;-92
2023/05/10 05:19:35;;;;;;;8.65;3.28;;;10.20;60.00;;;;;;4770356;30;20407;-92
2023/05/10 05:22:02;;;;;;;7.70;3.22;;;10.30;59.70;;;;;;4770496;30;20055;-92
2023/05/10 05:24:37;;;;;;;9.68;3.22;;;10.40;60.10;;;;;;4770315;30;20059;-92
2023/05/10 05:27:04;;;;;;;13.03;4.10;;;10.60;59.40;;;;;;4770477;30;20051;-92
2023/05/10 05:29:31;;;;;;;7.70;3.03;;;10.60;59.20;;;;;;4770085;30;20083;-92
2023/05/10 05:31:59;;;;;;;8.75;3.10;;;10.80;59.50;;;;;;4769827;30;20051;-92
2023/05/10 05:34:26;;;;;;;6.93;3.00;;;11.00;58.90;;;;;;4769915;30;20044;-92
2023/05/10 05:36:54;;;;;;;7.93;3.03;;;11.10;58.50;;;;;;4755224;30;20377;-92
2023/05/10 05:39:21;;;;;;;7.13;2.93;;;11.30;58.90;;;;;;4770086;30;20104;-91
2023/05/10 05:41:48;;;;;;;9.18;2.95;;;11.50;59.10;;;;;;4770092;30;20078;-92
2023/05/10 05:44:15;;;;;;;7.20;3.28;;;11.70;58.80;;;;;;4769720;30;20059;-92
2023/05/10 05:46:42;;;;;;;7.50;2.92;;;11.90;59.00;;;;;;4769848;30;20044;-92
2023/05/10 05:49:09;;;;;;;7.55;2.75;;;12.00;56.60;;;;;;4773248;30;20057;-92
2023/05/10 05:51:36;;;;;;;7.53;3.07;;;12.10;56.90;;;;;;4769837;30;20060;-91
2023/05/10 05:54:04;;;;;;;8.55;3.50;;;12.30;57.90;;;;;;4769768;30;20059;-92
2023/05/10 05:56:31;;;;;;;9.07;3.08;;;12.50;57.00;;;;;;4769935;30;20078;-92
2023/05/10 05:58:58;;;;;;;7.20;2.97;;;12.60;56.80;;;;;;4772872;30;20051;-92
2023/05/10 06:01:25;;;;;;;7.18;2.58;;;12.70;57.70;;;;;;4766578;30;20101;-92
2023/05/10 06:03:52;;;;;;;8.50;2.90;;;12.90;56.10;;;;;;4769422;30;20055;-92
2023/05/10 06:06:19;;;;;;;6.40;2.53;;;13.00;56.10;;;;;;4771433;30;20055;-92
2023/05/10 06:08:46;;;;;;;7.90;3.03;;;13.20;56.30;;;;;;4782925;29;20082;-91
2023/05/10 06:11:13;;;;;;;9.07;2.63;;;13.30;54.80;;;;;;4791561;29;20055;-92
2023/05/10 06:13:42;;;;;;;6.80;2.92;;;13.40;54.00;;;;;;4774433;29;20505;-92
2023/05/10 06:16:09;;;;;;;8.83;2.50;;;13.50;54.60;;;;;;4787391;30;20051;-92
2023/05/10 06:18:36;;;;;;;7.55;2.50;;;13.60;54.90;;;;;;4787619;30;20110;-92
2023/05/10 06:21:03;;;;;;;7.20;2.70;;;13.70;53.40;;;;;;4787338;30;20120;-92
2023/05/10 06:23:30;;;;;;;5.72;2.30;;;13.80;53.30;;;;;;4787590;30;20071;-92
2023/05/10 06:25:57;;;;;;;6.50;2.35;;;14.00;53.70;;;;;;4788012;29;20138;-92
2023/05/10 06:28:24;;;;;;;5.87;2.23;;;14.00;52.20;;;;;;4786444;30;20162;-92
2023/05/10 06:31:11;;;;;;;5.78;2.40;;;14.00;52.20;;;;;;4787405;29;20576;-92
2023/05/10 06:33:38;;;;;;;7.22;2.70;;;14.20;51.30;;;;;;4787632;30;20051;-92
2023/05/10 06:36:05;;;;;;;6.60;2.08;;;14.30;52.10;;;;;;4787273;29;20082;-92
2023/05/10 06:38:33;;;;;;;9.85;2.65;;;14.50;53.30;;;;;;4787344;30;20047;-92
2023/05/10 06:41:00;;;;;;;5.57;2.00;;;14.60;50.60;;;;;;4787388;30;20130;-92
2023/05/10 06:43:29;;;;;;;8.23;2.55;;;14.80;51.20;;;;;;4787150;30;20047;-92
2023/05/10 06:45:57;;;;;;;9.45;3.13;;;14.90;51.40;;;;;;4787187;29;20105;-93
2023/05/10 06:48:24;;;;;;;6.97;2.38;;;15.00;51.20;;;;;;4787158;30;20158;-93
2023/05/10 06:50:51;;;;;;;4.72;2.03;;;15.00;50.50;;;;;;4787264;30;20051;-92
2023/05/10 06:53:18;;;;;;;5.20;1.90;;;15.10;50.80;;;;;;4787432;29;20051;-93
2023/05/10 06:55:52;;;;;;;4.57;1.98;;;15.30;50.10;;;;;;4787145;30;20051;-92
2023/05/10 06:58:32;;;;;;;8.23;2.42;;;15.20;51.00;;;;;;4787089;29;20146;-92
2023/05/10 07:01:04;;;;;;;6.75;2.05;;;15.30;51.30;;;;;;4787240;30;20047;-93
2023/05/10 07:03:32;;;;;;;5.43;2.15;;;15.30;48.90;;;;;;4790622;29;20061;-93
2023/05/10 07:06:03;;;;;;;4.90;1.80;;;15.40;49.40;;;;;;4787723;30;20055;-92
2023/05/10 07:08:34;;;;;;;6.88;2.13;;;15.50;50.90;;;;;;4787142;29;20055;-92
2023/05/10 07:11:10;;;;;;;6.95;2.70;;;15.80;49.70;;;;;;4787145;29;20064;-93
2023/05/10 07:13:38;;;;;;;6.53;1.92;;;15.90;49.30;;;;;;4773902;30;20399;-93
2023/05/10 07:16:06;;;;;;;4.88;2.05;;;16.00;48.70;;;;;;4789788;30;20525;-93
2023/05/10 07:18:33;;;;;;;5.03;1.80;;;16.00;49.00;;;;;;4776181;29;20074;-93
2023/05/10 07:21:01;;;;;;;15.52;2.33;;;16.10;48.80;;;;;;4790404;29;20051;-93
2023/05/10 07:23:29;;;;;;;4.68;1.90;;;16.20;49.40;;;;;;4782246;29;20059;-93
2023/05/10 07:25:57;;;;;;;6.05;1.83;;;16.20;47.90;;;;;;4790390;30;20058;-93
2023/05/10 07:28:24;;;;;;;3.85;1.55;;;16.30;49.00;;;;;;4790233;30;20499;-93
2023/05/10 07:30:51;;;;;;;4.57;1.60;;;16.30;47.50;;;;;;4790058;29;20146;-93
2023/05/10 07:33:18;;;;;;;4.28;1.60;;;16.20;48.60;;;;;;4778687;30;20054;-93
2023/05/10 07:35:45;;;;;;;4.60;2.08;;;16.10;48.50;;;;;;4790291;30;20055;-92
2023/05/10 07:38:13;;;;;;;5.03;1.95;;;16.20;47.90;;;;;;4777505;29;20070;-93
2023/05/10 07:40:40;;;;;;;4.55;1.65;;;16.40;48.40;;;;;;4790325;29;20051;-93
2023/05/10 07:43:07;;;;;;;4.50;1.67;;;16.60;47.70;;;;;;4790170;30;20055;-93
2023/05/10 07:45:35;;;;;;;5.57;2.08;;;16.60;47.20;;;;;;4790448;29;20082;-93
2023/05/10 07:48:02;;;;;;;4.00;1.90;;;16.60;47.80;;;;;;4790092;29;20062;-93
2023/05/10 07:50:29;;;;;;;4.32;1.65;;;16.70;46.80;;;;;;4786775;30;20422;-93
2023/05/10 07:52:56;;;;;;;4.70;1.92;;;17.00;49.50;;;;;;4790060;29;20052;-93
2023/05/10 07:55:26;;;;;;;5.83;1.83;;;17.10;49.00;;;;;;4789877;29;20134;-93
2023/05/10 07:57:53;;;;;;;4.93;1.77;;;17.10;46.70;;;;;;4789908;30;20495;-92
2023/05/10 08:00:20;;;;;;;5.65;1.90;;;17.10;46.20;;;;;;4789703;29;20127;-93
2023/05/10 08:02:48;;;;;;;4.43;2.00;;;17.00;47.00;;;;;;4790110;30;20502;-92
2023/05/10 08:05:15;;;;;;;5.57;2.42;;;17.00;48.50;;;;;;4790368;29;20061;-93
2023/05/10 08:07:42;;;;;;;4.07;1.70;;;17.10;47.50;;;;;;4786468;29;20091;-92
2023/05/10 08:10:11;;;;;;;4.90;1.55;;;17.10;47.80;;;;;;4786829;30;20511;-93
2023/05/10 08:12:38;;;;;;;5.30;2.30;;;17.30;47.70;;;;;;4786529;29;20568;-93
2023/05/10 08:15:06;;;;;;;4.80;1.90;;;17.30;46.70;;;;;;4786507;29;20113;-93
2023/05/10 08:17:33;;;;;;;4.75;1.98;;;17.50;46.70;;;;;;4786580;29;20075;-93
2023/05/10 08:20:01;;;;;;;8.53;2.17;;;17.50;46.50;;;;;;4786633;29;20349;-93
2023/05/10 08:22:28;;;;;;;4.22;1.73;;;17.60;47.60;;;;;;4786866;29;20048;-92
2023/05/10 08:24:59;;;;;;;4.47;1.83;;;17.60;46.60;;;;;;4786208;29;20146;-93
2023/05/10 08:27:26;;;;;;;6.35;2.28;;;17.80;45.80;;;;;;4783271;30;20051;-93
2023/05/10 08:29:53;;;;;;;8.25;2.28;;;17.80;46.00;;;;;;4786208;30;20063;-93
2023/05/10 08:32:20;;;;;;;5.90;2.20;;;17.80;46.30;;;;;;4786424;30;20112;-93
2023/05/10 08:34:47;;;;;;;8.52;2.17;;;17.80;46.80;;;;;;4786217;30;20048;-93
2023/05/10 08:37:14;;;;;;;6.15;2.40;;;17.90;47.70;;;;;;4786383;29;20044;-93
2023/05/10 08:39:41;;;;;;;5.93;2.20;;;17.80;46.40;;;;;;4771175;30;20138;-93
2023/05/10 08:42:09;;;;;;;5.55;2.28;;;18.00;47.40;;;;;;4786195;30;20055;-93
2023/05/10 08:44:36;;;;;;;5.97;2.20;;;18.10;45.80;;;;;;4786298;30;20048;-93
2023/05/10 08:47:08;;;;;;;5.30;1.80;;;18.20;45.80;;;;;;4773934;29;20068;-93
2023/05/10 08:49:37;;;;;;;5.85;2.40;;;18.20;46.40;;;;;;4786035;30;20064;-93
2023/05/10 08:52:05;;;;;;;5.47;2.10;;;18.30;45.50;;;;;;4785784;30;20052;-92
2023/05/10 08:54:54;;;;;;;5.50;2.25;;;18.30;44.90;;;;;;4786242;30;20052;-93
2023/05/10 08:57:21;;;;;;;7.00;2.07;;;18.60;45.70;;;;;;4786059;29;20494;-93
2023/05/10 08:59:49;;;;;;;6.60;2.20;;;18.20;45.80;;;;;;4786008;30;20572;-92
2023/05/10 09:02:18;;;;;;;15.48;4.20;;;18.00;46.40;;;;;;4785720;30;20063;-93
2023/05/10 09:04:45;;;;;;;5.70;2.40;;;18.00;46.20;;;;;;4787822;29;20055;-93
2023/05/10 09:07:12;;;;;;;16.90;4.65;;;18.00;44.50;;;;;;4785536;29;20059;-93
2023/05/10 09:09:39;;;;;;;7.10;2.27;;;18.30;46.10;;;;;;4771052;30;20560;-93
2023/05/10 09:12:10;;;;;;;6.82;1.92;;;18.60;44.40;;;;;;4770808;30;20534;-93
2023/05/10 09:14:38;;;;;;;10.25;2.88;;;18.80;43.90;;;;;;4770933;30;20055;-93
2023/05/10 09:17:05;;;;;;;7.53;2.60;;;18.90;45.30;;;;;;4770734;30;20522;-93
2023/05/10 09:19:32;;;;;;;8.02;2.15;;;18.50;45.30;;;;;;4770672;30;20105;-93
2023/05/10 09:22:01;;;;;;;5.63;2.20;;;18.20;44.70;;;;;;4770685;30;20047;-93
2023/05/10 09:24:30;;;;;;;6.10;2.15;;;18.30;48.30;;;;;;4770543;30;20396;-93
2023/05/10 09:26:58;;;;;;;6.47;2.45;;;18.70;45.20;;;;;;4770680;30;20182;-93
2023/05/10 09:29:25;;;;;;;5.47;2.58;;;18.70;43.70;;;;;;4756877;30;20090;-93
2023/05/10 09:31:54;;;;;;;6.10;2.30;;;18.60;45.60;;;;;;4770572;30;20198;-93
2023/05/10 09:34:29;;;;;;;12.13;3.73;;;18.50;46.10;;;;;;4770459;30;20118;-93
2023/05/10 09:37:04;;;;;;;4.30;1.90;;;18.30;45.50;;;;;;4769755;30;20052;-93
2023/05/10 09:39:33;;;;;;;4.15;2.10;;;18.40;44.80;;;;;;4770067;30;20058;-93
2023/05/10 09:42:03;;;;;;;4.43;2.20;;;18.30;43.70;;;;;;4770460;30;20047;-93
2023/05/10 09:44:32;;;;;;;8.35;2.00;;;18.30;43.90;;;;;;4768498;30;20044;-93
2023/05/10 09:47:01;;;;;;;6.87;2.03;;;18.40;44.90;;;;;;4770128;30;20040;-93
2023/05/10 09:49:28;;;;;;;5.85;2.53;;;18.20;43.60;;;;;;4757846;30;20499;-93
2023/05/10 09:52:07;;;;;;;10.05;2.65;;;18.50;44.80;;;;;;4770249;30;20055;-93
2023/05/10 09:54:34;;;;;;;7.20;1.95;;;18.50;43.90;;;;;;4769968;30;20067;-93
2023/05/10 09:57:05;;;;;;;4.85;2.00;;;18.60;43.70;;;;;;4770359;30;20414;-93
2023/05/10 09:59:34;;;;;;;9.00;2.20;;;18.60;42.60;;;;;;4758310;30;20048;-93
2023/05/10 10:02:02;;;;;;;5.65;2.08;;;18.80;43.90;;;;;;4770252;30;20044;-93
2023/05/10 10:04:29;;;;;;;47.00;15.32;;;19.10;43.70;;;;;;4766516;30;20556;-93
2023/05/10 10:07:02;;;;;;;19.27;5.72;;;19.40;43.80;;;;;;4769752;30;20063;-93
2023/05/10 10:09:30;;;;;;;5.43;2.10;;;19.60;42.90;;;;;;4787761;30;20055;-93
2023/05/10 10:11:57;;;;;;;5.10;1.90;;;19.50;41.40;;;;;;4787732;29;20502;-93
2023/05/10 10:14:25;;;;;;;5.82;2.42;;;19.50;41.20;;;;;;4787557;30;20082;-93
2023/05/10 10:16:53;;;;;;;5.32;2.22;;;19.20;41.00;;;;;;4787449;29;20486;-93
2023/05/10 10:19:36;;;;;;;4.72;1.98;;;19.20;43.00;;;;;;4787639;30;20047;-93
2023/05/10 10:22:04;;;;;;;3.92;1.73;;;19.20;43.30;;;;;;4775785;30;20043;-93
2023/05/10 10:24:31;;;;;;;5.37;2.30;;;19.20;40.90;;;;;;4788131;30;20142;-93
2023/05/10 10:27:15;;;;;;;4.18;1.67;;;19.20;40.80;;;;;;4787522;30;20511;-93
2023/05/10 10:29:57;;;;;;;3.88;1.80;;;19.10;40.70;;;;;;4787507;29;20051;-93
2023/05/10 10:33:02;;;;;;;13.88;2.83;;;19.00;40.10;;;;;;4787339;30;20051;-93
2023/05/10 10:35:46;;;;;;;4.00;1.60;;;19.50;42.60;;;;;;4799448;29;20043;-93
2023/05/10 10:38:13;;;;;;;7.50;2.17;;;19.90;42.50;;;;;;4789421;29;20498;-93
2023/05/10 10:40:40;;;;;;;4.88;1.52;;;20.00;42.40;;;;;;4789214;29;20051;-93
2023/05/10 10:43:28;;;;;;;3.38;1.83;;;20.30;41.00;;;;;;4789593;29;20055;-93
2023/05/10 10:46:15;;;;;;;9.05;3.40;;;20.40;38.30;;;;;;4787414;29;20410;-93
2023/05/10 10:48:48;;;;;;;9.10;3.80;;;20.50;39.80;;;;;;4790665;29;20075;-93
2023/05/10 10:51:15;;;;;;;4.67;2.20;;;20.60;37.90;;;;;;4798515;29;20054;-92
2023/05/10 10:53:43;;;;;;;6.60;1.80;;;20.60;38.80;;;;;;4790869;29;20079;-93
2023/05/10 10:56:13;;;;;;;3.20;1.60;;;20.80;39.10;;;;;;4796541;29;20054;-93
2023/05/10 10:58:41;;;;;;;5.30;1.70;;;21.10;39.10;;;;;;4790795;30;20043;-93
2023/05/10 11:01:16;;;;;;;5.32;1.73;;;21.30;38.10;;;;;;4790872;30;20557;-93
2023/05/10 11:04:15;;;;;;;4.97;1.30;;;21.30;39.40;;;;;;4790778;29;20126;-93
2023/05/10 11:06:42;;;;;;;7.30;2.33;;;21.10;37.30;;;;;;4790931;29;21416;-93
2023/05/10 11:09:11;;;;;;;5.88;1.70;;;20.60;37.30;;;;;;4793211;29;20059;-93
2023/05/10 11:11:54;;;;;;;2.65;1.38;;;20.10;38.10;;;;;;4790736;30;20055;-93
2023/05/10 11:14:22;;;;;;;5.05;1.90;;;19.90;39.80;;;;;;4790689;30;20052;-93
2023/05/10 11:16:49;;;;;;;5.70;1.50;;;19.80;39.80;;;;;;4790634;30;20047;-94
2023/05/10 11:19:17;;;;;;;4.63;1.60;;;19.90;40.40;;;;;;4790546;30;20081;-93
2023/05/10 11:21:50;;;;;;;7.13;1.83;;;20.00;40.00;;;;;;4790529;30;20039;-93
2023/05/10 11:24:19;;;;;;;6.63;3.20;;;20.10;40.10;;;;;;4790474;30;20411;-93
2023/05/10 11:26:50;;;;;;;9.57;3.10;;;20.10;41.00;;;;;;4790476;30;20051;-93
2023/05/10 11:29:17;;;;;;;7.90;1.87;;;20.20;41.80;;;;;;4790316;30;20051;-93
2023/05/10 11:31:46;;;;;;;5.75;2.20;;;20.20;39.70;;;;;;4775430;30;20563;-94
2023/05/10 11:34:30;;;;;;;5.63;2.33;;;20.10;39.60;;;;;;4790237;30;20075;-93
2023/05/10 11:36:57;;;;;;;3.92;1.52;;;20.10;40.20;;;;;;4790141;29;20556;-93
2023/05/10 11:39:29;;;;;;;3.95;1.38;;;19.80;38.20;;;;;;4790191;30;20055;-93
2023/05/10 11:41:57;;;;;;;4.47;1.40;;;19.60;38.30;;;;;;4775358;30;20051;-93
2023/05/10 11:44:34;;;;;;;3.33;1.40;;;19.50;40.40;;;;;;4790238;29;20063;-93
2023/05/10 11:47:01;;;;;;;3.15;1.52;;;19.50;40.70;;;;;;4789951;30;20418;-93
2023/05/10 11:49:28;;;;;;;4.18;1.38;;;19.60;42.00;;;;;;4775274;30;20047;-93
2023/05/10 11:52:08;;;;;;;3.58;1.65;;;19.60;40.40;;;;;;4790015;30;20065;-93
2023/05/10 11:54:35;;;;;;;3.33;1.50;;;19.60;41.60;;;;;;4789906;30;20061;-93
2023/05/10 11:57:03;;;;;;;4.65;1.80;;;19.50;41.60;;;;;;4789989;30;20525;-93
2023/05/10 11:59:30;;;;;;;5.28;2.25;;;19.60;40.60;;;;;;4789227;29;20100;-92
2023/05/10 12:01:57;;;;;;;7.07;2.95;;;19.60;41.00;;;;;;4790001;30;20155;-93
2023/05/10 12:04:25;;;;;;;7.93;1.55;;;19.80;43.00;;;;;;4790274;29;20051;-93
2023/05/10 12:06:52;;;;;;;5.03;1.73;;;19.80;40.80;;;;;;4790076;30;20054;-93
2023/05/10 12:09:19;;;;;;;3.25;1.50;;;19.80;43.20;;;;;;4786774;29;20113;-94
2023/05/10 12:12:02;;;;;;;5.13;1.73;;;19.70;41.70;;;;;;4787157;29;20067;-94
2023/05/10 12:14:33;;;;;;;2.97;1.35;;;19.60;41.30;;;;;;4773235;29;20048;-93
2023/05/10 12:17:00;;;;;;;3.42;1.40;;;19.60;42.50;;;;;;4786624;29;20052;-93
2023/05/10 12:19:27;;;;;;;4.70;1.60;;;19.50;42.80;;;;;;4777007;29;20071;-93
2023/05/10 12:21:54;;;;;;;10.20;1.50;;;19.50;43.10;;;;;;4771712;30;20047;-93
2023/05/10 12:24:21;;;;;;;4.45;1.90;;;19.50;41.30;;;;;;4786493;30;20109;-93
2023/05/10 12:26:50;;;;;;;6.75;1.65;;;19.30;42.90;;;;;;4786515;29;20058;-93
2023/05/10 12:29:34;;;;;;;4.50;1.88;;;19.30;42.80;;;;;;4786275;30;20426;-93
2023/05/10 12:32:19;;;;;;;5.03;2.10;;;19.40;42.80;;;;;;4786658;30;20043;-93
2023/05/10 12:34:46;;;;;;;3.70;1.60;;;19.40;43.50;;;;;;4771509;30;20063;-93
2023/05/10 12:37:13;;;;;;;5.60;1.73;;;19.40;42.80;;;;;;4786537;30;20043;-93
2023/05/10 12:39:43;;;;;;;6.10;1.48;;;19.50;44.10;;;;;;4772248;29;20130;-93
2023/05/10 12:42:10;;;;;;;4.57;1.20;;;19.40;41.70;;;;;;4786211;30;20105;-93
2023/05/10 12:44:38;;;;;;;2.67;1.23;;;19.30;42.40;;;;;;4786262;30;20107;-93
2023/05/10 12:47:05;;;;;;;5.22;1.30;;;19.30;41.80;;;;;;4786023;30;20060;-93
2023/05/10 12:49:33;;;;;;;5.28;1.48;;;19.30;43.00;;;;;;4774702;30;20052;-93
2023/05/10 12:52:01;;;;;;;3.75;1.42;;;19.40;43.70;;;;;;4786147;30;20060;-93
2023/05/10 12:54:28;;;;;;;4.68;1.80;;;19.40;42.20;;;;;;4772145;30;20047;-93
2023/05/10 12:56:55;;;;;;;4.23;1.63;;;19.40;42.50;;;;;;4785826;30;20058;-93
2023/05/10 12:59:22;;;;;;;3.40;1.40;;;19.50;43.20;;;;;;4786023;30;20047;-93
2023/05/10 13:01:49;;;;;;;3.60;1.40;;;19.60;44.70;;;;;;4785577;30;20522;-92
2023/05/10 13:04:16;;;;;;;5.22;1.70;;;19.70;44.50;;;;;;4774377;30;20499;-92
2023/05/10 13:06:43;;;;;;;3.63;1.50;;;19.70;41.60;;;;;;4785493;30;20060;-92
2023/05/10 13:09:10;;;;;;;3.23;1.40;;;19.60;41.40;;;;;;4785576;29;20151;-92